• Join FlightAware (Why Join?)
  • Login
  • US Flag 
12:44AM EDT


 

Airport Tracker/Info


-or-


 

Live Flight TrackerFlight Track Log ✈ N89TC ✈ 13-Jun-2013 ✈ KCAK - KRYY

Flight Track Log - Related Links

Times and Time Zones

All times are in EDT time to prevent confusion due to time zone crossing. See the N89TC flight status page for this flight to view local times or setup timezone preferences in your user account.

Time Position Orientation Groundspeed Altitude Reporting Facility
EDT Latitude Longitude Course Direction KTS MPH feet Rate Location/Type
02:22PM 40.9983 -81.3808 139° Southeast 267 307 5,500  Level Cleveland Center
02:23PM 40.9403 -81.3142 139° Southeast 224 258 7,100 2,220 Climbing Cleveland Center
02:24PM 40.8528 -81.3161 181° South 251 289 10,000 2,940 Climbing Cleveland Center
02:25PM 40.7611 -81.3122 178° South 312 359 13,000 2,880 Climbing Cleveland Center
02:26PM 40.6692 -81.3386 192° South 338 389 15,800 2,640 Climbing Cleveland Center
02:27PM 40.5708 -81.3839 199° South 338 389 18,300 2,340 Climbing Cleveland Center
02:28PM 40.4725 -81.4375 203° Southwest 371 427 20,500 2,580 Climbing Cleveland Center
02:30PM 40.2903 -81.5344 202° Southwest 350 403 26,100 2,400 Climbing Indianapolis Center
02:31PM 40.2033 -81.5958 208° Southwest 352 405 27,800 1,320 Climbing Indianapolis Center
02:32PM 40.1158 -81.6672 212° Southwest 365 420 28,900 900 Climbing Indianapolis Center
02:33PM 40.0219 -81.7428 212° Southwest 389 448 29,700 1,200 Climbing Indianapolis Center
02:34PM 39.9278 -81.8233 213° Southwest 390 449 31,400 1,320 Climbing Indianapolis Center
02:35PM 39.8369 -81.8917 210° Southwest 375 432 32,500 780 Climbing Indianapolis Center
02:36PM 39.7397 -81.9500 205° Southwest 378 435 33,000 480 Climbing Indianapolis Center
02:37PM 39.6311 -82.0047 201° Southwest 390 449 33,500 540 Climbing Indianapolis Center
02:38PM 39.5328 -82.0600 203° Southwest 386 444 34,200 480 Climbing Indianapolis Center
02:39PM 39.4353 -82.1114 202° Southwest 382 440 34,600 480 Climbing Indianapolis Center
02:40PM 39.3358 -82.1639 202° Southwest 386 444 35,200 540 Climbing Indianapolis Center
02:41PM 39.2375 -82.2161 202° Southwest 384 442 35,800 960 Climbing Indianapolis Center
02:42PM 39.1231 -82.2781 203° Southwest 374 430 37,300 840 Climbing Indianapolis Center
02:43PM 39.0286 -82.3239 201° Southwest 366 421 37,600 360 Climbing Indianapolis Center
02:44PM 38.9328 -82.3747 202° Southwest 371 427 38,100 600 Climbing Indianapolis Center
02:45PM 38.8392 -82.4269 203° Southwest 370 426 38,900 660 Climbing Indianapolis Center
02:46PM 38.7433 -82.4772 202° Southwest 374 430 39,500 480 Climbing Indianapolis Center
02:48PM 38.6486 -82.5236 201° Southwest 368 423 40,000 240 Climbing Indianapolis Center
02:49PM 38.5300 -82.5847 202° Southwest 378 435 40,000  Level Indianapolis Center
02:50PM 38.4292 -82.6389 203° Southwest 390 449 40,000  Level Indianapolis Center
02:51PM 38.3242 -82.6897 201° Southwest 399 459 40,000  Level Indianapolis Center
02:52PM 38.2211 -82.7439 202° Southwest 401 461 40,000  Level Indianapolis Center
02:53PM 38.1158 -82.7972 202° Southwest 405 466 40,000  Level Indianapolis Center
02:54PM 38.0111 -82.8525 203° Southwest 407 468 40,100  Climbing Indianapolis Center
02:55PM 37.8875 -82.9139 201° Southwest 409 471 40,000 -120 Descending Indianapolis Center
02:56PM 37.7817 -82.9686 202° Southwest 410 472 39,900 -60 Descending Indianapolis Center
02:57PM 37.6750 -83.0219 202° Southwest 410 472 39,900  Level Indianapolis Center
02:58PM 37.5683 -83.0772 202° Southwest 414 476 39,900 -180 Level Indianapolis Center
02:59PM 37.4603 -83.1306 201° Southwest 415 478 39,600 -780 Descending Indianapolis Center
03:00PM 37.3522 -83.1844 202° Southwest 418 481 38,400 -1,500 Descending Indianapolis Center
03:01PM 37.2239 -83.2497 202° Southwest 426 490 36,500 -1,260 Descending Indianapolis Center
03:02PM 37.1272 -83.3272 213° Southwest 414 476 35,900 -540 Descending Indianapolis Center
03:03PM 37.0428 -83.4172 220° Southwest 403 464 35,400 -480 Descending Indianapolis Center
03:04PM 36.9628 -83.5017 220° Southwest 385 443 35,000 -300 Descending Indianapolis Center
03:05PM 36.8642 -83.5947 217° Southwest 382 440 34,900  Descending Indianapolis Center
03:06PM 36.7756 -83.6664 213° Southwest 379 436 35,000  Climbing Indianapolis Center
03:07PM 36.6806 -83.7317 209° Southwest 386 444 35,000  Level Indianapolis Center
03:08PM 36.5775 -83.7839 202° Southwest 393 452 35,000 -420 Level Indianapolis Center
03:09PM 36.4539 -83.8175 192° South 407 468 34,200 -960 Descending Indianapolis Center
03:10PM 36.3331 -83.8436 190° South 433 498 33,100 -900 Descending Indianapolis Center
03:11PM 36.2100 -83.8625 187° South 441 507 32,400 -480 Descending Indianapolis Center
03:12PM 36.0864 -83.8700 183° South 442 509 32,200 -1,020 Descending Indianapolis Center
03:13PM 35.9681 -83.8592 176° South 427 491 30,300 -1,920 Descending Indianapolis Center
03:14PM 35.8350 -83.8389 173° South 442 509 28,500 -1,860 Descending Atlanta Center
03:15PM 35.7097 -83.8086 169° South 448 516 26,700 -1,620 Descending Atlanta Center
03:16PM 35.5867 -83.7758 168° South 458 527 25,300 -1,860 Descending Atlanta Center
03:17PM 35.4697 -83.7431 167° South 447 514 23,000 -2,160 Descending Atlanta Center
03:18PM 35.3528 -83.7408 179° South 435 501 21,000 -1,980 Descending Atlanta Center
03:20PM 35.2303 -83.7081 168° South  Level FlightAware Approximate
03:20PM 35.1358 -83.7314 168° South 397 457 17,100  Level Atlanta Center
03:21PM 35.0397 -83.7494 189° South 373 429 14,900 -2,100 Descending Atlanta Center
03:22PM 34.9564 -83.7903 202° Southwest 346 398 12,900 -1,800 Descending Atlanta Center
03:23PM 34.8792 -83.8161 195° South 311 358 11,300 -1,380 Descending Atlanta Center
03:24PM 34.8083 -83.8414 196° South 274 315 10,200 -960 Descending Atlanta Center
03:26PM 34.6804 -83.8681 202° Southwest  Level FlightAware Approximate
03:26PM 34.6811 -83.9175 202° Southwest 257 296 8,500  Level Atlanta Center
03:27PM 34.6081 -83.9453 197° South 275 316 7,000 -720 Descending Atlanta Center
03:28PM 34.5331 -83.9681 194° South 288 331 7,100 -240 Climbing Atlanta Center
03:29PM 34.4642 -83.9961 199° South 274 315 6,600 -660 Descending Atlanta Center
03:30PM 34.4017 -84.0286 203° Southwest 259 298 5,800 -240 Descending Atlanta Center
03:31PM 34.3431 -84.0564 201° Southwest 238 274 6,200 -600 Climbing Atlanta Center
03:32PM 34.2994 -84.1117 226° Southwest 222 255 4,600 -1,140 Descending Atlanta Center
03:33PM 34.2533 -84.1769 229° Southwest 233 268 4,000 -480 Descending Atlanta Center
03:34PM 34.2178 -84.2297 231° Southwest 228 262 3,700 -480 Descending Atlanta Center
03:35PM 34.1822 -84.2875 233° Southwest 221 254 3,100 -300 Descending Atlanta Center
03:36PM 34.1403 -84.3475 230° Southwest 227 261 3,100 -180 Level Atlanta Center
03:37PM 34.0964 -84.4050 227° Southwest 227 261 2,800 -120 Descending Atlanta Center
03:39PM 34.0167 -84.5000 225° Southwest 213 245 2,800 -420 Level Atlanta TRACON
03:40PM 34.0167 -84.5500 270° West 164 189 1,800 -1,020 Descending Atlanta TRACON
03:42PM 34.0000 -84.5833 248° West  Level FlightAware Approximate